Buoy 41503

sailwx.info

Track history (hours):
 
Tides and Currents Weather Stations Pressure Air Temp Water Temp Dewpoint Dewpoint Depression Visibility Wind Speed Wind Dir Waves Ship Positions

Drifting buoy 41503

Last reported at 2015-Jan-29 02:46 UTC. Time now 2015-Jan-29 06:25 UTC.
Position N 34°56' W 064°42'.

Water temperature 20.5 ° C

Date/timePositionNaut miles runAvg speedWind from/ knotsBaromVisibWave heightAir tempDewpointWater temp
2015-Jan-29 02:46N 34°56' W 064°42'1 1.2 20.5
2015-Jan-29 01:58N 34°56' W 064°43'1 3.6 20.6
2015-Jan-29 01:48N 34°57' W 064°44'0 0.0 20.6
2015-Jan-29 01:11N 34°57' W 064°44'0 2.0 20.6
2015-Jan-29 01:02N 34°57' W 064°44'0 0.0 20.5
2015-Jan-29 00:18N 34°57' W 064°44'0 0.3 20.6
2015-Jan-28 23:03N 34°57' W 064°44'1 0.6 20.6
2015-Jan-28 22:02N 34°58' W 064°44'010.0 20.6
2015-Jan-28 22:00N 34°58' W 064°44'1 1.7 20.6
2015-Jan-28 21:26N 34°59' W 064°45'1 0.6 20.6
2015-Jan-28 20:25N 34°59' W 064°45'230.1 20.6
2015-Jan-28 20:22N 35°01' W 064°45'0 0.3 20.6
2015-Jan-28 18:47N 35°00' W 064°45'0 3.0 20.6
2015-Jan-28 18:42N 35°00' W 064°45'2 1.3 20.6
2015-Jan-28 17:10N 35°02' W 064°45'0 2.3 20.6
2015-Jan-28 17:08N 35°02' W 064°45'2 1.8 20.6
2015-Jan-28 16:16N 35°04' W 064°45'0 0.0 20.6
2015-Jan-28 15:31N 35°04' W 064°45'1 8.1 20.6
2015-Jan-28 15:23N 35°05' W 064°45'0 0.0 20.6
2015-Jan-28 14:40N 35°05' W 064°45'1 0.8 20.6
2015-Jan-28 13:49N 35°05' W 064°46'320.0 20.6
2015-Jan-28 13:41N 35°08' W 064°45'0 0.0 20.6
2015-Jan-28 12:48N 35°08' W 064°45'0 0.0
2015-Jan-28 12:19N 35°08' W 064°45'0 0.2 20.6
2015-Jan-28 10:46N 35°08' W 064°45'0 0.9 20.6
2015-Jan-28 10:34N 35°08' W 064°46'1 0.7 20.6
2015-Jan-28 09:12N 35°09' W 064°45'0 2.1 20.6
2015-Jan-28 09:02N 35°09' W 064°45'0 3.3 20.6
2015-Jan-28 08:57N 35°09' W 064°45'215.4 20.6
2015-Jan-28 08:51N 35°10' W 064°43'0 0.0 20.6
2015-Jan-28 07:26N 35°10' W 064°43'1 7.7 20.7
2015-Jan-28 07:16N 35°11' W 064°42'0 0.0 20.7
2015-Jan-28 05:41N 35°11' W 064°42'455.9 20.7
2015-Jan-28 05:37N 35°13' W 064°38'0 0.0 20.7
2015-Jan-28 03:02N 35°13' W 064°38'0 0.0 20.7
2015-Jan-28 02:20N 35°13' W 064°38'0 2.4 20.7
2015-Jan-28 02:11N 35°13' W 064°38'2 2.5 20.7
2015-Jan-28 01:29N 35°14' W 064°36'1 1.0 20.7
2015-Jan-28 00:34N 35°15' W 064°36'1 1.1 20.7
2015-Jan-27 23:51N 35°16' W 064°36'0 0.0 20.7
2015-Jan-27 23:38N 35°16' W 064°36'2 1.4 20.7
2015-Jan-27 22:23N 35°17' W 064°34'0 0.0 20.7
2015-Jan-27 22:15N 35°17' W 064°34'128.7 20.7
2015-Jan-27 22:12N 35°18' W 064°32'1 5.1 20.7
2015-Jan-27 21:58N 35°17' W 064°34'1 1.0 20.7
2015-Jan-27 20:48N 35°18' W 064°32'0 0.0 20.7
2015-Jan-27 20:37N 35°18' W 064°32'0 0.0 20.7
2015-Jan-27 20:31N 35°18' W 064°32'2 1.2 20.7
2015-Jan-27 19:06N 35°18' W 064°30'0 0.0 20.7
2015-Jan-27 19:01N 35°18' W 064°30'0 4.1 20.7
2015-Jan-27 18:56N 35°17' W 064°30'0 0.0 20.7
2015-Jan-27 18:54N 35°17' W 064°30'2 1.2 20.7
2015-Jan-27 17:22N 35°17' W 064°28'2 1.0 20.7
2015-Jan-27 15:48N 35°17' W 064°26'211.3 20.7
2015-Jan-27 15:37N 35°16' W 064°24'0 0.0 20.7
2015-Jan-27 15:00N 35°16' W 064°24'0 0.6 20.7
2015-Jan-27 14:13N 35°16' W 064°23'211.3 20.7
2015-Jan-27 14:02N 35°16' W 064°21'0 0.0 20.7
2015-Jan-27 11:22N 35°16' W 064°21'1 2.6 20.7
2015-Jan-27 11:10N 35°15' W 064°20'1 2.6 20.7
2015-Jan-27 10:46N 35°15' W 064°19'0 0.0 20.7
2015-Jan-27 09:44N 35°15' W 064°19'0 0.2 20.7
2015-Jan-27 09:25N 35°15' W 064°19'0 3.6 20.7
2015-Jan-27 09:23N 35°15' W 064°19'0 0.8 20.7
2015-Jan-27 09:08N 35°15' W 064°19'214.0 20.7
2015-Jan-27 09:01N 35°14' W 064°17'0 0.0 20.7
2015-Jan-27 08:02N 35°14' W 064°17'0 0.1 20.7
2015-Jan-27 07:32N 35°14' W 064°17'123.0 20.7
2015-Jan-27 07:29N 35°13' W 064°16'0 0.0 20.7
2015-Jan-27 07:28N 35°13' W 064°16'0 0.0 20.7
2015-Jan-27 05:53N 35°13' W 064°16'3 1.0 20.7
2015-Jan-27 02:39N 35°11' W 064°13'1 9.4 20.7
2015-Jan-27 02:32N 35°10' W 064°12'1 1.7 20.7
2015-Jan-27 01:52N 35°09' W 064°12'116.9 20.7
2015-Jan-27 01:48N 35°10' W 064°12'1 1.5 20.7
2015-Jan-27 01:00N 35°09' W 064°12'1 1.0 20.7
2015-Jan-27 00:10N 35°08' W 064°11'0 1.0 20.7
2015-Jan-27 00:07N 35°08' W 064°11'1 1.6 20.7
2015-Jan-26 23:18N 35°07' W 064°10'0 1.0 20.7
2015-Jan-26 22:48N 35°07' W 064°10'121.1 20.7
2015-Jan-26 22:46N 35°06' W 064°10'0 0.0 20.7
2015-Jan-26 22:29N 35°06' W 064°10'0 4.0 20.7
2015-Jan-26 22:25N 35°06' W 064°10'242.0 20.7
2015-Jan-26 22:22N 35°04' W 064°09'0 0.1 20.7
2015-Jan-26 21:13N 35°04' W 064°09'0 0.0 20.7
2015-Jan-26 21:10N 35°04' W 064°09'0 0.0 20.7
2015-Jan-26 20:47N 35°04' W 064°09'1 8.4 20.7
2015-Jan-26 20:38N 35°03' W 064°10'0 0.0 20.7
2015-Jan-26 19:32N 35°03' W 064°10'1 6.5 20.7
2015-Jan-26 19:27N 35°03' W 064°10'0 0.3 20.7
2015-Jan-26 19:13N 35°03' W 064°10'0 0.0 20.7
2015-Jan-26 19:07N 35°03' W 064°10'1 6.1 20.7
2015-Jan-26 19:00N 35°02' W 064°09'1 1.0 20.7
2015-Jan-26 17:32N 35°01' W 064°11'1 8.4 20.7
2015-Jan-26 17:23N 35°00' W 064°11'0 0.3 20.7
2015-Jan-26 16:10N 35°00' W 064°11'0 0.0 20.7
2015-Jan-26 15:47N 35°00' W 064°11'0 0.0 20.7
2015-Jan-26 15:20N 35°00' W 064°11'1 0.7 20.7
2015-Jan-26 14:32N 35°00' W 064°12'1 6.9 20.7
2015-Jan-26 14:25N 34°60' W 064°12'0 0.0 20.7
2015-Jan-26 13:41N 34°60' W 064°12'1 0.6 20.7
2015-Jan-26 12:46N 34°59' W 064°13'113.7 20.7
2015-Jan-26 12:43N 34°59' W 064°14'0 0.0 20.7
2015-Jan-26 11:52N 34°59' W 064°14'0 0.9 20.7
2015-Jan-26 11:33N 34°59' W 064°14'0 3.8 20.7
2015-Jan-26 11:26N 34°59' W 064°14'0 0.0 20.7
2015-Jan-26 11:01N 34°59' W 064°14'0 0.0 20.7
2015-Jan-26 10:59N 34°59' W 064°14'0 5.9 20.7
2015-Jan-26 10:58N 34°59' W 064°14'1 1.1 20.7
2015-Jan-26 10:16N 34°59' W 064°15'1 1.4 20.7
2015-Jan-26 09:54N 34°59' W 064°16'0 1.5 20.7
2015-Jan-26 09:46N 34°59' W 064°15'0 0.2 20.7
2015-Jan-26 09:23N 34°59' W 064°15'0 1.0 20.7
2015-Jan-26 09:20N 34°59' W 064°15'110.7 20.7
2015-Jan-26 09:15N 34°59' W 064°17'0 0.0 20.7
2015-Jan-26 08:35N 34°59' W 064°17'1 2.1 20.7
2015-Jan-26 08:09N 34°59' W 064°18'0 0.0 20.7
2015-Jan-26 07:47N 34°59' W 064°18'1 9.4 20.7
2015-Jan-26 07:40N 34°59' W 064°19'0 0.0 20.7
2015-Jan-26 07:35N 34°59' W 064°19'0 0.2 20.7
2015-Jan-26 06:02N 34°60' W 064°19'248.2 20.7
2015-Jan-26 05:59N 35°01' W 064°22'0 0.0 20.7
2015-Jan-26 02:58N 35°01' W 064°22'1 8.3 20.7
2015-Jan-26 02:54N 35°01' W 064°22'1 1.2 20.7
2015-Jan-26 02:14N 35°02' W 064°22'0 1.5 20.7
2015-Jan-26 02:10N 35°02' W 064°22'1 1.2 20.7
2015-Jan-26 01:21N 35°02' W 064°23'1 5.9 20.7
2015-Jan-26 01:11N 35°03' W 064°23'1 1.4 20.7
2015-Jan-26 00:33N 35°03' W 064°24'124.5 20.7
2015-Jan-26 00:30N 35°04' W 064°24'0 0.0 20.7
2015-Jan-25 23:39N 35°04' W 064°24'1 7.1 20.7
2015-Jan-25 23:34N 35°05' W 064°24'0 0.0 20.7
2015-Jan-25 23:01N 35°05' W 064°24'2 4.0 20.7
2015-Jan-25 22:34N 35°06' W 064°25'0 0.0 20.7
2015-Jan-25 21:38N 35°06' W 064°25'1 1.1 20.7
2015-Jan-25 20:59N 35°07' W 064°25'1 1.0 20.7
2015-Jan-25 19:57N 35°08' W 064°25'155.3 20.8
2015-Jan-25 19:56N 35°09' W 064°25'0 0.7 20.8
2015-Jan-25 19:17N 35°09' W 064°25'2 1.2 20.8
2015-Jan-25 17:44N 35°11' W 064°23'1 9.6 20.8
2015-Jan-25 17:35N 35°12' W 064°22'0 0.0 20.8
2015-Jan-25 16:00N 35°12' W 064°22'2 5.2 20.8
2015-Jan-25 15:40N 35°14' W 064°22'0 0.1 20.8
2015-Jan-25 14:54N 35°14' W 064°21'210.0 20.8
2015-Jan-25 14:45N 35°15' W 064°21'0 0.0 20.8
2015-Jan-25 14:01N 35°15' W 064°21'5 3.2 20.8
2015-Jan-25 12:18N 35°19' W 064°16'0 0.0 20.8
2015-Jan-25 12:12N 35°19' W 064°16'1 4.3 20.8
2015-Jan-25 11:55N 35°18' W 064°17'1 1.8 20.8
2015-Jan-25 11:11N 35°19' W 064°16'128.2 20.8
2015-Jan-25 11:08N 35°20' W 064°15'1 1.9 20.8
2015-Jan-25 10:46N 35°20' W 064°16'1 1.6 20.8
2015-Jan-25 10:20N 35°20' W 064°15'112.2 20.8
2015-Jan-25 10:13N 35°21' W 064°15'0 0.0 20.8
2015-Jan-25 09:34N 35°21' W 064°15'361.2 20.8
2015-Jan-25 09:31N 35°23' W 064°12'0 0.0 20.8
2015-Jan-25 09:26N 35°23' W 064°12'2 4.5 20.8
2015-Jan-25 09:01N 35°21' W 064°14'2 3.6 20.8
2015-Jan-25 08:30N 35°23' W 064°12'0 0.0
2015-Jan-25 07:59N 35°23' W 064°12'0 4.6 20.8
2015-Jan-25 07:53N 35°23' W 064°12'124.5 20.8
2015-Jan-25 07:50N 35°23' W 064°10'0 0.0 20.8
2015-Jan-25 07:47N 35°23' W 064°10'0 0.0 20.8
2015-Jan-25 06:18N 35°23' W 064°10'433.5 20.8
2015-Jan-25 06:10N 35°21' W 064°05'0 0.0 20.8
2015-Jan-25 03:19N 35°21' W 064°05'1 1.6 20.8
2015-Jan-25 02:31N 35°21' W 064°04'3 2.7 20.8
2015-Jan-25 01:33N 35°19' W 064°01'0 0.0 20.8
2015-Jan-25 00:54N 35°19' W 064°01'0 0.0 20.8
2015-Jan-25 00:48N 35°19' W 064°01'2 2.0 20.8
2015-Jan-25 00:01N 35°18' W 063°60'0 0.0 20.8
2015-Jan-24 23:33N 35°18' W 063°60'2 1.5 20.8
2015-Jan-24 22:01N 35°17' W 063°57'1 7.4 20.8
2015-Jan-24 21:55N 35°16' W 063°57'0 0.0 20.8
2015-Jan-24 21:10N 35°16' W 063°57'1 4.9 20.8
2015-Jan-24 21:01N 35°16' W 063°56'0 0.0 20.8
2015-Jan-24 20:22N 35°16' W 063°56'1 9.8 20.8
2015-Jan-24 20:16N 35°15' W 063°55'0 0.0 20.8
2015-Jan-24 19:33N 35°15' W 063°55'120.0 20.8
2015-Jan-24 19:31N 35°15' W 063°55'0 0.0 20.8
2015-Jan-24 19:29N 35°15' W 063°55'1 5.1 20.8
2015-Jan-24 19:21N 35°14' W 063°55'0 0.1 20.8
2015-Jan-24 17:54N 35°14' W 063°55'2 0.9 20.8
2015-Jan-24 16:12N 35°13' W 063°53'1 4.7 20.8
2015-Jan-24 15:59N 35°12' W 063°52'0 0.0 20.8
2015-Jan-24 15:14N 35°12' W 063°52'1 4.7 20.8
2015-Jan-24 15:04N 35°12' W 063°52'0 0.0 20.8
2015-Jan-24 14:22N 35°12' W 063°52'1 5.5 20.8
2015-Jan-24 14:16N 35°11' W 063°52'1 0.7 20.8
2015-Jan-24 13:32N 35°11' W 063°51'1 1.3 20.8
2015-Jan-24 12:37N 35°10' W 063°51'2 1.3 20.8
2015-Jan-24 11:16N 35°08' W 063°50'0 0.0
2015-Jan-24 10:42N 35°08' W 063°50'110.3 20.8
2015-Jan-24 10:34N 35°07' W 063°50'0 0.0 20.8
2015-Jan-24 09:00N 35°07' W 063°50'0 0.0 20.8
2015-Jan-24 08:57N 35°07' W 063°50'1 1.1 20.8
2015-Jan-24 08:06N 35°06' W 063°50'0 0.0 20.8
2015-Jan-24 08:01N 35°06' W 063°50'1 9.5 20.8
2015-Jan-24 07:55N 35°07' W 063°50'1 0.7 20.8
2015-Jan-24 06:30N 35°06' W 063°50'2 0.5 20.8
2015-Jan-24 02:46N 35°04' W 063°50'0 0.0 20.8
2015-Jan-24 02:01N 35°04' W 063°50'1 4.1 20.8
2015-Jan-24 01:52N 35°04' W 063°51'1 0.9 20.8
2015-Jan-24 01:15N 35°04' W 063°50'0 2.6 20.8
2015-Jan-24 01:07N 35°04' W 063°50'0 0.3 20.8
2015-Jan-24 00:16N 35°04' W 063°51'0 0.0 20.8
2015-Jan-24 00:02N 35°04' W 063°51'1 0.4 20.8
2015-Jan-23 22:27N 35°04' W 063°51'0 1.0 20.8
2015-Jan-23 22:24N 35°04' W 063°51'0 2.3 20.8
2015-Jan-23 22:22N 35°04' W 063°51'0 7.6 20.8
2015-Jan-23 22:20N 35°04' W 063°52'0 0.1 20.8
2015-Jan-23 21:22N 35°04' W 063°52'0 0.8 20.8
2015-Jan-23 20:48N 35°04' W 063°52'0 1.5 20.8
2015-Jan-23 20:46N 35°04' W 063°52'0 0.4 20.8
2015-Jan-23 19:44N 35°04' W 063°53'0 5.5 20.8
2015-Jan-23 19:41N 35°04' W 063°52'0 2.0 20.8
2015-Jan-23 19:34N 35°04' W 063°52'1 2.4 20.8
2015-Jan-23 19:05N 35°05' W 063°53'1 0.6 20.8
2015-Jan-23 18:00N 35°04' W 063°53'1 0.7 20.9
2015-Jan-23 16:24N 35°05' W 063°54'0 0.6 20.9
2015-Jan-23 15:32N 35°05' W 063°54'0 0.5 20.8
2015-Jan-23 14:43N 35°06' W 063°55'1 0.8 20.8
2015-Jan-23 13:54N 35°06' W 063°55'214.6 20.8
2015-Jan-23 13:45N 35°08' W 063°56'0 0.0 20.8
2015-Jan-23 12:51N 35°08' W 063°56'0 0.0 20.8
2015-Jan-23 11:46N 35°08' W 063°56'0 2.7 20.8
2015-Jan-23 11:35N 35°08' W 063°56'1 9.2 20.8
2015-Jan-23 11:29N 35°08' W 063°55'0 0.0 20.8
2015-Jan-23 11:09N 35°08' W 063°55'1 4.8 20.8
2015-Jan-23 11:00N 35°09' W 063°55'0 0.0 20.9
2015-Jan-23 10:09N 35°09' W 063°55'0 0.7 20.9
2015-Jan-23 09:54N 35°09' W 063°55'1 4.0 20.9
2015-Jan-23 09:46N 35°10' W 063°56'0 0.0 20.8
2015-Jan-23 09:25N 35°10' W 063°56'111.9 20.8
2015-Jan-23 09:20N 35°11' W 063°55'0 0.0 20.8
2015-Jan-23 08:17N 35°11' W 063°55'0 5.0 20.9
2015-Jan-23 08:14N 35°11' W 063°55'1 8.1 20.9
2015-Jan-23 08:10N 35°11' W 063°55'1 1.0 20.9
2015-Jan-23 06:40N 35°12' W 063°55'2 9.6 20.8
2015-Jan-23 06:30N 35°13' W 063°54'0 0.0 20.9
2015-Jan-23 04:57N 35°13' W 063°54'3 1.0 20.9
2015-Jan-23 02:22N 35°15' W 063°52'1 6.7 20.9
2015-Jan-23 02:14N 35°16' W 063°51'0 0.0 20.9
2015-Jan-23 01:33N 35°16' W 063°51'1 1.0 20.9
2015-Jan-23 00:43N 35°16' W 063°50'0 0.9 20.9
2015-Jan-23 00:38N 35°16' W 063°50'0 0.8 20.9
2015-Jan-23 00:32N 35°16' W 063°50'1 1.1 20.9
2015-Jan-22 23:55N 35°16' W 063°49'110.7
2015-Jan-22 23:47N 35°18' W 063°49'0 0.0 20.9
2015-Jan-22 22:56N 35°18' W 063°49'0 0.0 20.9
2015-Jan-22 22:47N 35°18' W 063°49'1 0.8 20.9
2015-Jan-22 21:33N 35°18' W 063°48'0 1.4 20.9
2015-Jan-22 21:28N 35°18' W 063°47'116.1 20.9
2015-Jan-22 21:25N 35°18' W 063°46'0 2.1 20.9
2015-Jan-22 21:11N 35°19' W 063°46'1 0.7 20.9
2015-Jan-22 19:53N 35°19' W 063°47'2 5.2 20.9
2015-Jan-22 19:31N 35°19' W 063°45'0 0.0 20.9
2015-Jan-22 18:16N 35°19' W 063°45'1 0.5 21.0
2015-Jan-22 16:34N 35°19' W 063°44'0 0.2 20.9
2015-Jan-22 15:53N 35°18' W 063°44'213.0 21.0
2015-Jan-22 15:46N 35°18' W 063°42'0 0.0 21.0
2015-Jan-22 15:01N 35°18' W 063°42'0 0.3 21.0
2015-Jan-22 14:16N 35°18' W 063°42'213.5 20.9
2015-Jan-22 14:06N 35°18' W 063°40'0 0.0 20.9
2015-Jan-22 11:44N 35°18' W 063°40'0 0.0 20.9
2015-Jan-22 11:33N 35°18' W 063°40'1 0.7 20.9
2015-Jan-22 10:40N 35°17' W 063°39'1 1.0 20.9
2015-Jan-22 10:09N 35°17' W 063°39'0 0.8 20.9
2015-Jan-22 09:53N 35°17' W 063°39'1 5.2 20.9
2015-Jan-22 09:46N 35°16' W 063°38'0 0.3 20.9
2015-Jan-22 08:30N 35°16' W 063°38'0 2.3 20.9
2015-Jan-22 08:23N 35°16' W 063°38'221.7 20.9
2015-Jan-22 08:18N 35°15' W 063°36'0 0.0 20.9
2015-Jan-22 08:09N 35°15' W 063°36'0 0.0 21.0
2015-Jan-22 06:46N 35°15' W 063°36'0 6.3 20.9
2015-Jan-22 06:42N 35°15' W 063°35'0 0.0 20.9
2015-Jan-22 05:09N 35°15' W 063°35'211.8 21.0
2015-Jan-22 05:00N 35°13' W 063°34'0 0.0 21.0
2015-Jan-22 02:43N 35°13' W 063°34'1 0.7 21.0
2015-Jan-22 01:56N 35°13' W 063°34'1 0.7 21.0
2015-Jan-22 01:01N 35°12' W 063°34'1 0.9 21.0
2015-Jan-22 00:15N 35°12' W 063°33'0 0.0 21.0
2015-Jan-22 00:13N 35°12' W 063°33'0 4.9 21.0
2015-Jan-22 00:08N 35°12' W 063°33'1 0.8 21.0
2015-Jan-21 23:26N 35°11' W 063°33'0 1.8 21.0
2015-Jan-21 23:22N 35°11' W 063°33'1 6.5 21.0
2015-Jan-21 23:13N 35°10' W 063°33'0 0.0 21.0
2015-Jan-21 21:47N 35°10' W 063°33'0 4.9 21.0
2015-Jan-21 21:44N 35°10' W 063°32'0 0.9 21.0
2015-Jan-21 21:39N 35°10' W 063°32'1 0.5 21.0
2015-Jan-21 20:00N 35°09' W 063°33'0 1.9 21.0
2015-Jan-21 19:55N 35°09' W 063°32'1 6.0 21.0
2015-Jan-21 19:49N 35°09' W 063°32'0 0.0 21.0
2015-Jan-21 18:28N 35°09' W 063°32'1 8.1 21.0
2015-Jan-21 18:20N 35°08' W 063°33'1 0.5 21.0
2015-Jan-21 16:46N 35°08' W 063°34'0 0.2 21.0
2015-Jan-21 15:14N 35°07' W 063°34'0 0.0 21.0
2015-Jan-21 14:36N 35°07' W 063°34'0 2.9 21.0
2015-Jan-21 14:29N 35°07' W 063°34'0 0.0 21.0
2015-Jan-21 13:43N 35°07' W 063°34'0 0.4 21.0
2015-Jan-21 12:54N 35°07' W 063°34'1 5.9 20.9
2015-Jan-21 12:45N 35°07' W 063°35'0 0.0 20.9
2015-Jan-21 11:12N 35°07' W 063°35'1 1.1 20.9
2015-Jan-21 10:21N 35°07' W 063°36'0 3.3 21.0
2015-Jan-21 10:12N 35°07' W 063°37'0 0.0 21.0
2015-Jan-21 10:08N 35°07' W 063°37'1 0.3 21.0
2015-Jan-21 07:51N 35°06' W 063°38'1 0.8 21.0
2015-Jan-21 07:01N 35°07' W 063°38'1 6.2 21.0
2015-Jan-21 06:53N 35°07' W 063°39'0 0.0 21.0
2015-Jan-21 05:20N 35°07' W 063°39'2 0.7 21.0
2015-Jan-21 02:56N 35°08' W 063°41'0 0.0 21.0
2015-Jan-21 02:15N 35°08' W 063°41'0 0.5 21.0
2015-Jan-21 01:24N 35°08' W 063°41'0 0.0 21.0
2015-Jan-21 01:15N 35°08' W 063°41'1 1.6 21.0
2015-Jan-21 00:37N 35°09' W 063°41'0 0.0 21.0
2015-Jan-21 00:34N 35°09' W 063°41'0 0.0 21.0
2015-Jan-20 23:57N 35°09' W 063°41'1 2.2 21.0
2015-Jan-20 23:43N 35°10' W 063°41'1 9.5 21.0
2015-Jan-20 23:38N 35°11' W 063°41'0 0.0 21.0
2015-Jan-20 22:15N 35°11' W 063°41'0 1.5 21.0
2015-Jan-20 22:00N 35°11' W 063°41'0 0.8 21.0
2015-Jan-20 21:54N 35°11' W 063°42'0 2.3 21.0
2015-Jan-20 21:51N 35°11' W 063°42'1 0.8 21.0
2015-Jan-20 20:15N 35°12' W 063°41'1 0.8 21.0
2015-Jan-20 18:39N 35°13' W 063°40'1 7.7 21.0
2015-Jan-20 18:33N 35°14' W 063°41'1 0.8 21.0
2015-Jan-20 16:55N 35°15' W 063°40'2 1.8 21.0
2015-Jan-20 15:43N 35°16' W 063°39'0 0.0 21.0
2015-Jan-20 14:58N 35°16' W 063°39'0 3.3 21.0
2015-Jan-20 14:49N 35°16' W 063°38'116.4 21.0
2015-Jan-20 14:46N 35°17' W 063°38'0 0.0 21.0
2015-Jan-20 14:05N 35°17' W 063°38'2 1.0 20.9
2015-Jan-20 12:22N 35°19' W 063°37'0 0.0 21.0
2015-Jan-20 12:19N 35°19' W 063°37'2 1.3 21.0
2015-Jan-20 10:43N 35°20' W 063°35'0 0.6 21.0
2015-Jan-20 10:35N 35°20' W 063°35'0 1.5 21.0
2015-Jan-20 10:33N 35°20' W 063°36'210.4 21.0
2015-Jan-20 10:24N 35°22' W 063°34'1 1.3 21.0
2015-Jan-20 10:00N 35°21' W 063°34'1 0.5 21.0
2015-Jan-20 08:52N 35°22' W 063°34'0 0.8 21.0
2015-Jan-20 08:46N 35°22' W 063°34'029.6 21.0
2015-Jan-20 08:45N 35°22' W 063°34'115.2 21.0
2015-Jan-20 08:42N 35°22' W 063°33'1 2.5 21.0
2015-Jan-20 08:24N 35°22' W 063°34'1 0.7 21.0
2015-Jan-20 07:16N 35°22' W 063°33'0 1.0 21.0
2015-Jan-20 07:13N 35°22' W 063°33'213.6 21.0
2015-Jan-20 07:04N 35°23' W 063°31'0 0.0 21.0
2015-Jan-20 05:31N 35°23' W 063°31'3 1.6 21.0
2015-Jan-20 03:22N 35°24' W 063°27'1 8.8 21.0
2015-Jan-20 03:18N 35°24' W 063°26'0 0.0 21.0
2015-Jan-20 02:35N 35°24' W 063°26'1 1.4 21.0
2015-Jan-20 01:46N 35°25' W 063°25'1 4.2 21.0
2015-Jan-20 01:36N 35°25' W 063°24'2 2.7 21.0
2015-Jan-20 00:57N 35°25' W 063°22'1 2.0 21.0
2015-Jan-20 00:26N 35°25' W 063°23'1 2.5 21.0
2015-Jan-20 00:01N 35°25' W 063°22'3 2.2 21.0
2015-Jan-19 22:46N 35°25' W 063°18'2 4.9 21.0
2015-Jan-19 22:26N 35°26' W 063°20'0 0.0 21.0
2015-Jan-19 22:20N 35°26' W 063°20'0 1.5 21.0
2015-Jan-19 22:06N 35°25' W 063°20'110.8 21.0
2015-Jan-19 22:00N 35°25' W 063°19'0 0.2 21.0
2015-Jan-19 20:45N 35°25' W 063°18'0 0.2 21.1
2015-Jan-19 20:27N 35°25' W 063°18'2 1.0 21.1
2015-Jan-19 18:46N 35°24' W 063°17'0 0.0 21.1
2015-Jan-19 18:45N 35°24' W 063°17'1 0.6 21.1
2015-Jan-19 17:10N 35°24' W 063°16'0 0.0 21.1
2015-Jan-19 17:07N 35°24' W 063°16'2 1.4 21.1
2015-Jan-19 16:03N 35°23' W 063°15'0 0.0 21.1
2015-Jan-19 15:18N 35°23' W 063°15'1 6.7 21.1
2015-Jan-19 15:08N 35°22' W 063°13'0 0.0 21.1
2015-Jan-19 14:25N 35°22' W 063°13'1 0.8 21.1
2015-Jan-19 13:36N 35°22' W 063°13'210.4 21.1
2015-Jan-19 13:27N 35°21' W 063°11'0 0.0 21.1
2015-Jan-19 12:41N 35°21' W 063°11'236.4 21.1
2015-Jan-19 12:38N 35°19' W 063°11'0 0.0 21.1
2015-Jan-19 12:35N 35°19' W 063°11'0 0.0 21.1
2015-Jan-19 11:09N 35°19' W 063°11'1 3.3 21.1
2015-Jan-19 10:57N 35°18' W 063°10'0 0.0 21.1
2015-Jan-19 10:43N 35°18' W 063°10'1 7.9 21.1
2015-Jan-19 10:37N 35°19' W 063°09'2 1.3 21.1
2015-Jan-19 09:24N 35°17' W 063°09'0 3.8 21.1
2015-Jan-19 09:21N 35°17' W 063°09'1 1.5 21.1
2015-Jan-19 09:00N 35°17' W 063°09'0 0.9 21.1
2015-Jan-19 08:55N 35°17' W 063°09'2148.9 21.1
2015-Jan-19 08:54N 35°14' W 063°08'0 0.0 21.1
2015-Jan-19 07:25N 35°14' W 063°08'215.3 21.1
2015-Jan-19 07:16N 35°12' W 063°07'0 0.1 21.1
2015-Jan-19 05:41N 35°12' W 063°07'555.6 21.1
2015-Jan-19 05:36N 35°07' W 063°07'0 0.0 21.1
2015-Jan-19 02:51N 35°07' W 063°07'   21.1
Track history (hours):
 
Tides and Currents Weather Stations Pressure Air Temp Water Temp Dewpoint Dewpoint Depression Visibility Wind Speed Wind Dir Waves Ship Positions

Drifting buoy 41503

Last reported at 2015-Jan-29 02:46 UTC. Time now 2015-Jan-29 06:25 UTC.
Position N 34°56' W 064°42'.

Water temperature 20.5 ° C

Date/timePositionNaut miles runAvg speedWind from/ knotsBaromVisibWave heightAir tempDewpointWater temp
2015-Jan-29 02:46N 34°56' W 064°42'1 1.2 20.5
2015-Jan-29 01:58N 34°56' W 064°43'1 3.6 20.6
2015-Jan-29 01:48N 34°57' W 064°44'0 0.0 20.6
2015-Jan-29 01:11N 34°57' W 064°44'0 2.0 20.6
2015-Jan-29 01:02N 34°57' W 064°44'0 0.0 20.5
2015-Jan-29 00:18N 34°57' W 064°44'0 0.3 20.6
2015-Jan-28 23:03N 34°57' W 064°44'1 0.6 20.6
2015-Jan-28 22:02N 34°58' W 064°44'010.0 20.6
2015-Jan-28 22:00N 34°58' W 064°44'1 1.7 20.6
2015-Jan-28 21:26N 34°59' W 064°45'1 0.6 20.6
2015-Jan-28 20:25N 34°59' W 064°45'230.1 20.6
2015-Jan-28 20:22N 35°01' W 064°45'0 0.3 20.6
2015-Jan-28 18:47N 35°00' W 064°45'0 3.0 20.6
2015-Jan-28 18:42N 35°00' W 064°45'2 1.3 20.6
2015-Jan-28 17:10N 35°02' W 064°45'0 2.3 20.6
2015-Jan-28 17:08N 35°02' W 064°45'2 1.8 20.6
2015-Jan-28 16:16N 35°04' W 064°45'0 0.0 20.6
2015-Jan-28 15:31N 35°04' W 064°45'1 8.1 20.6
2015-Jan-28 15:23N 35°05' W 064°45'0 0.0 20.6
2015-Jan-28 14:40N 35°05' W 064°45'1 0.8 20.6
2015-Jan-28 13:49N 35°05' W 064°46'320.0 20.6
2015-Jan-28 13:41N 35°08' W 064°45'0 0.0 20.6
2015-Jan-28 12:48N 35°08' W 064°45'0 0.0
2015-Jan-28 12:19N 35°08' W 064°45'0 0.2 20.6
2015-Jan-28 10:46N 35°08' W 064°45'0 0.9 20.6
2015-Jan-28 10:34N 35°08' W 064°46'1 0.7 20.6
2015-Jan-28 09:12N 35°09' W 064°45'0 2.1 20.6
2015-Jan-28 09:02N 35°09' W 064°45'0 3.3 20.6
2015-Jan-28 08:57N 35°09' W 064°45'215.4 20.6
2015-Jan-28 08:51N 35°10' W 064°43'0 0.0 20.6
2015-Jan-28 07:26N 35°10' W 064°43'1 7.7 20.7
2015-Jan-28 07:16N 35°11' W 064°42'0 0.0 20.7
2015-Jan-28 05:41N 35°11' W 064°42'455.9 20.7
2015-Jan-28 05:37N 35°13' W 064°38'0 0.0 20.7
2015-Jan-28 03:02N 35°13' W 064°38'0 0.0 20.7
2015-Jan-28 02:20N 35°13' W 064°38'0 2.4 20.7
2015-Jan-28 02:11N 35°13' W 064°38'2 2.5 20.7
2015-Jan-28 01:29N 35°14' W 064°36'1 1.0 20.7
2015-Jan-28 00:34N 35°15' W 064°36'1 1.1 20.7
2015-Jan-27 23:51N 35°16' W 064°36'0 0.0 20.7
2015-Jan-27 23:38N 35°16' W 064°36'2 1.4 20.7
2015-Jan-27 22:23N 35°17' W 064°34'0 0.0 20.7
2015-Jan-27 22:15N 35°17' W 064°34'128.7 20.7
2015-Jan-27 22:12N 35°18' W 064°32'1 5.1 20.7
2015-Jan-27 21:58N 35°17' W 064°34'1 1.0 20.7
2015-Jan-27 20:48N 35°18' W 064°32'0 0.0 20.7
2015-Jan-27 20:37N 35°18' W 064°32'0 0.0 20.7
2015-Jan-27 20:31N 35°18' W 064°32'2 1.2 20.7
2015-Jan-27 19:06N 35°18' W 064°30'0 0.0 20.7
2015-Jan-27 19:01N 35°18' W 064°30'0 4.1 20.7
2015-Jan-27 18:56N 35°17' W 064°30'0 0.0 20.7
2015-Jan-27 18:54N 35°17' W 064°30'2 1.2 20.7
2015-Jan-27 17:22N 35°17' W 064°28'2 1.0 20.7
2015-Jan-27 15:48N 35°17' W 064°26'211.3 20.7
2015-Jan-27 15:37N 35°16' W 064°24'0 0.0 20.7
2015-Jan-27 15:00N 35°16' W 064°24'0 0.6 20.7
2015-Jan-27 14:13N 35°16' W 064°23'211.3 20.7
2015-Jan-27 14:02N 35°16' W 064°21'0 0.0 20.7
2015-Jan-27 11:22N 35°16' W 064°21'1 2.6 20.7
2015-Jan-27 11:10N 35°15' W 064°20'1 2.6 20.7
2015-Jan-27 10:46N 35°15' W 064°19'0 0.0 20.7
2015-Jan-27 09:44N 35°15' W 064°19'0 0.2 20.7
2015-Jan-27 09:25N 35°15' W 064°19'0 3.6 20.7
2015-Jan-27 09:23N 35°15' W 064°19'0 0.8 20.7
2015-Jan-27 09:08N 35°15' W 064°19'214.0 20.7
2015-Jan-27 09:01N 35°14' W 064°17'0 0.0 20.7
2015-Jan-27 08:02N 35°14' W 064°17'0 0.1 20.7
2015-Jan-27 07:32N 35°14' W 064°17'123.0 20.7
2015-Jan-27 07:29N 35°13' W 064°16'0 0.0 20.7
2015-Jan-27 07:28N 35°13' W 064°16'0 0.0 20.7
2015-Jan-27 05:53N 35°13' W 064°16'3 1.0 20.7
2015-Jan-27 02:39N 35°11' W 064°13'1 9.4 20.7
2015-Jan-27 02:32N 35°10' W 064°12'1 1.7 20.7
2015-Jan-27 01:52N 35°09' W 064°12'116.9 20.7
2015-Jan-27 01:48N 35°10' W 064°12'1 1.5 20.7
2015-Jan-27 01:00N 35°09' W 064°12'1 1.0 20.7
2015-Jan-27 00:10N 35°08' W 064°11'0 1.0 20.7
2015-Jan-27 00:07N 35°08' W 064°11'1 1.6 20.7
2015-Jan-26 23:18N 35°07' W 064°10'0 1.0 20.7
2015-Jan-26 22:48N 35°07' W 064°10'121.1 20.7
2015-Jan-26 22:46N 35°06' W 064°10'0 0.0 20.7
2015-Jan-26 22:29N 35°06' W 064°10'0 4.0 20.7
2015-Jan-26 22:25N 35°06' W 064°10'242.0 20.7
2015-Jan-26 22:22N 35°04' W 064°09'0 0.1 20.7
2015-Jan-26 21:13N 35°04' W 064°09'0 0.0 20.7
2015-Jan-26 21:10N 35°04' W 064°09'0 0.0 20.7
2015-Jan-26 20:47N 35°04' W 064°09'1 8.4 20.7
2015-Jan-26 20:38N 35°03' W 064°10'0 0.0 20.7
2015-Jan-26 19:32N 35°03' W 064°10'1 6.5 20.7
2015-Jan-26 19:27N 35°03' W 064°10'0 0.3 20.7
2015-Jan-26 19:13N 35°03' W 064°10'0 0.0 20.7
2015-Jan-26 19:07N 35°03' W 064°10'1 6.1 20.7
2015-Jan-26 19:00N 35°02' W 064°09'1 1.0 20.7
2015-Jan-26 17:32N 35°01' W 064°11'1 8.4 20.7
2015-Jan-26 17:23N 35°00' W 064°11'0 0.3 20.7
2015-Jan-26 16:10N 35°00' W 064°11'0 0.0 20.7
2015-Jan-26 15:47N 35°00' W 064°11'0 0.0 20.7
2015-Jan-26 15:20N 35°00' W 064°11'1 0.7 20.7
2015-Jan-26 14:32N 35°00' W 064°12'1 6.9 20.7
2015-Jan-26 14:25N 34°60' W 064°12'0 0.0 20.7
2015-Jan-26 13:41N 34°60' W 064°12'1 0.6 20.7
2015-Jan-26 12:46N 34°59' W 064°13'113.7 20.7
2015-Jan-26 12:43N 34°59' W 064°14'0 0.0 20.7
2015-Jan-26 11:52N 34°59' W 064°14'0 0.9 20.7
2015-Jan-26 11:33N 34°59' W 064°14'0 3.8 20.7
2015-Jan-26 11:26N 34°59' W 064°14'0 0.0 20.7
2015-Jan-26 11:01N 34°59' W 064°14'0 0.0 20.7
2015-Jan-26 10:59N 34°59' W 064°14'0 5.9 20.7
2015-Jan-26 10:58N 34°59' W 064°14'1 1.1 20.7
2015-Jan-26 10:16N 34°59' W 064°15'1 1.4 20.7
2015-Jan-26 09:54N 34°59' W 064°16'0 1.5 20.7
2015-Jan-26 09:46N 34°59' W 064°15'0 0.2 20.7
2015-Jan-26 09:23N 34°59' W 064°15'0 1.0 20.7
2015-Jan-26 09:20N 34°59' W 064°15'110.7 20.7
2015-Jan-26 09:15N 34°59' W 064°17'0 0.0 20.7
2015-Jan-26 08:35N 34°59' W 064°17'1 2.1 20.7
2015-Jan-26 08:09N 34°59' W 064°18'0 0.0 20.7
2015-Jan-26 07:47N 34°59' W 064°18'1 9.4 20.7
2015-Jan-26 07:40N 34°59' W 064°19'0 0.0 20.7
2015-Jan-26 07:35N 34°59' W 064°19'0 0.2 20.7
2015-Jan-26 06:02N 34°60' W 064°19'248.2 20.7
2015-Jan-26 05:59N 35°01' W 064°22'0 0.0 20.7
2015-Jan-26 02:58N 35°01' W 064°22'1 8.3 20.7
2015-Jan-26 02:54N 35°01' W 064°22'1 1.2 20.7
2015-Jan-26 02:14N 35°02' W 064°22'0 1.5 20.7
2015-Jan-26 02:10N 35°02' W 064°22'1 1.2 20.7
2015-Jan-26 01:21N 35°02' W 064°23'1 5.9 20.7
2015-Jan-26 01:11N 35°03' W 064°23'1 1.4 20.7
2015-Jan-26 00:33N 35°03' W 064°24'124.5 20.7
2015-Jan-26 00:30N 35°04' W 064°24'0 0.0 20.7
2015-Jan-25 23:39N 35°04' W 064°24'1 7.1 20.7
2015-Jan-25 23:34N 35°05' W 064°24'0 0.0 20.7
2015-Jan-25 23:01N 35°05' W 064°24'2 4.0 20.7
2015-Jan-25 22:34N 35°06' W 064°25'0 0.0 20.7
2015-Jan-25 21:38N 35°06' W 064°25'1 1.1 20.7
2015-Jan-25 20:59N 35°07' W 064°25'1 1.0 20.7
2015-Jan-25 19:57N 35°08' W 064°25'155.3 20.8
2015-Jan-25 19:56N 35°09' W 064°25'0 0.7 20.8
2015-Jan-25 19:17N 35°09' W 064°25'2 1.2 20.8
2015-Jan-25 17:44N 35°11' W 064°23'1 9.6 20.8
2015-Jan-25 17:35N 35°12' W 064°22'0 0.0 20.8
2015-Jan-25 16:00N 35°12' W 064°22'2 5.2 20.8
2015-Jan-25 15:40N 35°14' W 064°22'0 0.1 20.8
2015-Jan-25 14:54N 35°14' W 064°21'210.0 20.8
2015-Jan-25 14:45N 35°15' W 064°21'0 0.0 20.8
2015-Jan-25 14:01N 35°15' W 064°21'5 3.2 20.8
2015-Jan-25 12:18N 35°19' W 064°16'0 0.0 20.8
2015-Jan-25 12:12N 35°19' W 064°16'1 4.3 20.8
2015-Jan-25 11:55N 35°18' W 064°17'1 1.8 20.8
2015-Jan-25 11:11N 35°19' W 064°16'128.2 20.8
2015-Jan-25 11:08N 35°20' W 064°15'1 1.9 20.8
2015-Jan-25 10:46N 35°20' W 064°16'1 1.6 20.8
2015-Jan-25 10:20N 35°20' W 064°15'112.2 20.8
2015-Jan-25 10:13N 35°21' W 064°15'0 0.0 20.8
2015-Jan-25 09:34N 35°21' W 064°15'361.2 20.8
2015-Jan-25 09:31N 35°23' W 064°12'0 0.0 20.8
2015-Jan-25 09:26N 35°23' W 064°12'2 4.5 20.8
2015-Jan-25 09:01N 35°21' W 064°14'2 3.6 20.8
2015-Jan-25 08:30N 35°23' W 064°12'0 0.0
2015-Jan-25 07:59N 35°23' W 064°12'0 4.6 20.8
2015-Jan-25 07:53N 35°23' W 064°12'124.5 20.8
2015-Jan-25 07:50N 35°23' W 064°10'0 0.0 20.8
2015-Jan-25 07:47N 35°23' W 064°10'0 0.0 20.8
2015-Jan-25 06:18N 35°23' W 064°10'433.5 20.8
2015-Jan-25 06:10N 35°21' W 064°05'0 0.0 20.8
2015-Jan-25 03:19N 35°21' W 064°05'1 1.6 20.8
2015-Jan-25 02:31N 35°21' W 064°04'3 2.7 20.8
2015-Jan-25 01:33N 35°19' W 064°01'0 0.0 20.8
2015-Jan-25 00:54N 35°19' W 064°01'0 0.0 20.8
2015-Jan-25 00:48N 35°19' W 064°01'2 2.0 20.8
2015-Jan-25 00:01N 35°18' W 063°60'0 0.0 20.8
2015-Jan-24 23:33N 35°18' W 063°60'2 1.5 20.8
2015-Jan-24 22:01N 35°17' W 063°57'1 7.4 20.8
2015-Jan-24 21:55N 35°16' W 063°57'0 0.0 20.8
2015-Jan-24 21:10N 35°16' W 063°57'1 4.9 20.8
2015-Jan-24 21:01N 35°16' W 063°56'0 0.0 20.8
2015-Jan-24 20:22N 35°16' W 063°56'1 9.8 20.8
2015-Jan-24 20:16N 35°15' W 063°55'0 0.0 20.8
2015-Jan-24 19:33N 35°15' W 063°55'120.0 20.8
2015-Jan-24 19:31N 35°15' W 063°55'0 0.0 20.8
2015-Jan-24 19:29N 35°15' W 063°55'1 5.1 20.8
2015-Jan-24 19:21N 35°14' W 063°55'0 0.1 20.8
2015-Jan-24 17:54N 35°14' W 063°55'2 0.9 20.8
2015-Jan-24 16:12N 35°13' W 063°53'1 4.7 20.8
2015-Jan-24 15:59N 35°12' W 063°52'0 0.0 20.8
2015-Jan-24 15:14N 35°12' W 063°52'1 4.7 20.8
2015-Jan-24 15:04N 35°12' W 063°52'0 0.0 20.8
2015-Jan-24 14:22N 35°12' W 063°52'1 5.5 20.8
2015-Jan-24 14:16N 35°11' W 063°52'1 0.7 20.8
2015-Jan-24 13:32N 35°11' W 063°51'1 1.3 20.8
2015-Jan-24 12:37N 35°10' W 063°51'2 1.3 20.8
2015-Jan-24 11:16N 35°08' W 063°50'0 0.0
2015-Jan-24 10:42N 35°08' W 063°50'110.3 20.8
2015-Jan-24 10:34N 35°07' W 063°50'0 0.0 20.8
2015-Jan-24 09:00N 35°07' W 063°50'0 0.0 20.8
2015-Jan-24 08:57N 35°07' W 063°50'1 1.1 20.8
2015-Jan-24 08:06N 35°06' W 063°50'0 0.0 20.8
2015-Jan-24 08:01N 35°06' W 063°50'1 9.5 20.8
2015-Jan-24 07:55N 35°07' W 063°50'1 0.7 20.8
2015-Jan-24 06:30N 35°06' W 063°50'2 0.5 20.8
2015-Jan-24 02:46N 35°04' W 063°50'0 0.0 20.8
2015-Jan-24 02:01N 35°04' W 063°50'1 4.1 20.8
2015-Jan-24 01:52N 35°04' W 063°51'1 0.9 20.8
2015-Jan-24 01:15N 35°04' W 063°50'0 2.6 20.8
2015-Jan-24 01:07N 35°04' W 063°50'0 0.3 20.8
2015-Jan-24 00:16N 35°04' W 063°51'0 0.0 20.8
2015-Jan-24 00:02N 35°04' W 063°51'1 0.4 20.8
2015-Jan-23 22:27N 35°04' W 063°51'0 1.0 20.8
2015-Jan-23 22:24N 35°04' W 063°51'0 2.3 20.8
2015-Jan-23 22:22N 35°04' W 063°51'0 7.6 20.8
2015-Jan-23 22:20N 35°04' W 063°52'0 0.1 20.8
2015-Jan-23 21:22N 35°04' W 063°52'0 0.8 20.8
2015-Jan-23 20:48N 35°04' W 063°52'0 1.5 20.8
2015-Jan-23 20:46N 35°04' W 063°52'0 0.4 20.8
2015-Jan-23 19:44N 35°04' W 063°53'0 5.5 20.8
2015-Jan-23 19:41N 35°04' W 063°52'0 2.0 20.8
2015-Jan-23 19:34N 35°04' W 063°52'1 2.4 20.8
2015-Jan-23 19:05N 35°05' W 063°53'1 0.6 20.8
2015-Jan-23 18:00N 35°04' W 063°53'1 0.7 20.9
2015-Jan-23 16:24N 35°05' W 063°54'0 0.6 20.9
2015-Jan-23 15:32N 35°05' W 063°54'0 0.5 20.8
2015-Jan-23 14:43N 35°06' W 063°55'1 0.8 20.8
2015-Jan-23 13:54N 35°06' W 063°55'214.6 20.8
2015-Jan-23 13:45N 35°08' W 063°56'0 0.0 20.8
2015-Jan-23 12:51N 35°08' W 063°56'0 0.0 20.8
2015-Jan-23 11:46N 35°08' W 063°56'0 2.7 20.8
2015-Jan-23 11:35N 35°08' W 063°56'1 9.2 20.8
2015-Jan-23 11:29N 35°08' W 063°55'0 0.0 20.8
2015-Jan-23 11:09N 35°08' W 063°55'1 4.8 20.8
2015-Jan-23 11:00N 35°09' W 063°55'0 0.0 20.9
2015-Jan-23 10:09N 35°09' W 063°55'0 0.7 20.9
2015-Jan-23 09:54N 35°09' W 063°55'1 4.0 20.9
2015-Jan-23 09:46N 35°10' W 063°56'0 0.0 20.8
2015-Jan-23 09:25N 35°10' W 063°56'111.9 20.8
2015-Jan-23 09:20N 35°11' W 063°55'0 0.0 20.8
2015-Jan-23 08:17N 35°11' W 063°55'0 5.0 20.9
2015-Jan-23 08:14N 35°11' W 063°55'1 8.1 20.9
2015-Jan-23 08:10N 35°11' W 063°55'1 1.0 20.9
2015-Jan-23 06:40N 35°12' W 063°55'2 9.6 20.8
2015-Jan-23 06:30N 35°13' W 063°54'0 0.0 20.9
2015-Jan-23 04:57N 35°13' W 063°54'3 1.0 20.9
2015-Jan-23 02:22N 35°15' W 063°52'1 6.7 20.9
2015-Jan-23 02:14N 35°16' W 063°51'0 0.0 20.9
2015-Jan-23 01:33N 35°16' W 063°51'1 1.0 20.9
2015-Jan-23 00:43N 35°16' W 063°50'0 0.9 20.9
2015-Jan-23 00:38N 35°16' W 063°50'0 0.8 20.9
2015-Jan-23 00:32N 35°16' W 063°50'1 1.1 20.9
2015-Jan-22 23:55N 35°16' W 063°49'110.7
2015-Jan-22 23:47N 35°18' W 063°49'0 0.0 20.9
2015-Jan-22 22:56N 35°18' W 063°49'0 0.0 20.9
2015-Jan-22 22:47N 35°18' W 063°49'1 0.8 20.9
2015-Jan-22 21:33N 35°18' W 063°48'0 1.4 20.9
2015-Jan-22 21:28N 35°18' W 063°47'116.1 20.9
2015-Jan-22 21:25N 35°18' W 063°46'0 2.1 20.9
2015-Jan-22 21:11N 35°19' W 063°46'1 0.7 20.9
2015-Jan-22 19:53N 35°19' W 063°47'2 5.2 20.9
2015-Jan-22 19:31N 35°19' W 063°45'0 0.0 20.9
2015-Jan-22 18:16N 35°19' W 063°45'1 0.5 21.0
2015-Jan-22 16:34N 35°19' W 063°44'0 0.2 20.9
2015-Jan-22 15:53N 35°18' W 063°44'213.0 21.0
2015-Jan-22 15:46N 35°18' W 063°42'0 0.0 21.0
2015-Jan-22 15:01N 35°18' W 063°42'0 0.3 21.0
2015-Jan-22 14:16N 35°18' W 063°42'213.5 20.9
2015-Jan-22 14:06N 35°18' W 063°40'0 0.0 20.9
2015-Jan-22 11:44N 35°18' W 063°40'0 0.0 20.9
2015-Jan-22 11:33N 35°18' W 063°40'1 0.7 20.9
2015-Jan-22 10:40N 35°17' W 063°39'1 1.0 20.9
2015-Jan-22 10:09N 35°17' W 063°39'0 0.8 20.9
2015-Jan-22 09:53N 35°17' W 063°39'1 5.2 20.9
2015-Jan-22 09:46N 35°16' W 063°38'0 0.3 20.9
2015-Jan-22 08:30N 35°16' W 063°38'0 2.3 20.9
2015-Jan-22 08:23N 35°16' W 063°38'221.7 20.9
2015-Jan-22 08:18N 35°15' W 063°36'0 0.0 20.9
2015-Jan-22 08:09N 35°15' W 063°36'0 0.0 21.0
2015-Jan-22 06:46N 35°15' W 063°36'0 6.3 20.9
2015-Jan-22 06:42N 35°15' W 063°35'0 0.0 20.9
2015-Jan-22 05:09N 35°15' W 063°35'211.8 21.0
2015-Jan-22 05:00N 35°13' W 063°34'0 0.0 21.0
2015-Jan-22 02:43N 35°13' W 063°34'1 0.7 21.0
2015-Jan-22 01:56N 35°13' W 063°34'1 0.7 21.0
2015-Jan-22 01:01N 35°12' W 063°34'1 0.9 21.0
2015-Jan-22 00:15N 35°12' W 063°33'0 0.0 21.0
2015-Jan-22 00:13N 35°12' W 063°33'0 4.9 21.0
2015-Jan-22 00:08N 35°12' W 063°33'1 0.8 21.0
2015-Jan-21 23:26N 35°11' W 063°33'0 1.8 21.0
2015-Jan-21 23:22N 35°11' W 063°33'1 6.5 21.0
2015-Jan-21 23:13N 35°10' W 063°33'0 0.0 21.0
2015-Jan-21 21:47N 35°10' W 063°33'0 4.9 21.0
2015-Jan-21 21:44N 35°10' W 063°32'0 0.9 21.0
2015-Jan-21 21:39N 35°10' W 063°32'1 0.5 21.0
2015-Jan-21 20:00N 35°09' W 063°33'0 1.9 21.0
2015-Jan-21 19:55N 35°09' W 063°32'1 6.0 21.0
2015-Jan-21 19:49N 35°09' W 063°32'0 0.0 21.0
2015-Jan-21 18:28N 35°09' W 063°32'1 8.1 21.0
2015-Jan-21 18:20N 35°08' W 063°33'1 0.5 21.0
2015-Jan-21 16:46N 35°08' W 063°34'0 0.2 21.0
2015-Jan-21 15:14N 35°07' W 063°34'0 0.0 21.0
2015-Jan-21 14:36N 35°07' W 063°34'0 2.9 21.0
2015-Jan-21 14:29N 35°07' W 063°34'0 0.0 21.0
2015-Jan-21 13:43N 35°07' W 063°34'0 0.4 21.0
2015-Jan-21 12:54N 35°07' W 063°34'1 5.9 20.9
2015-Jan-21 12:45N 35°07' W 063°35'0 0.0 20.9
2015-Jan-21 11:12N 35°07' W 063°35'1 1.1 20.9
2015-Jan-21 10:21N 35°07' W 063°36'0 3.3 21.0
2015-Jan-21 10:12N 35°07' W 063°37'0 0.0 21.0
2015-Jan-21 10:08N 35°07' W 063°37'1 0.3 21.0
2015-Jan-21 07:51N 35°06' W 063°38'1 0.8 21.0
2015-Jan-21 07:01N 35°07' W 063°38'1 6.2 21.0
2015-Jan-21 06:53N 35°07' W 063°39'0 0.0 21.0
2015-Jan-21 05:20N 35°07' W 063°39'2 0.7 21.0
2015-Jan-21 02:56N 35°08' W 063°41'0 0.0 21.0
2015-Jan-21 02:15N 35°08' W 063°41'0 0.5 21.0
2015-Jan-21 01:24N 35°08' W 063°41'0 0.0 21.0
2015-Jan-21 01:15N 35°08' W 063°41'1 1.6 21.0
2015-Jan-21 00:37N 35°09' W 063°41'0 0.0 21.0
2015-Jan-21 00:34N 35°09' W 063°41'0 0.0 21.0
2015-Jan-20 23:57N 35°09' W 063°41'1 2.2 21.0
2015-Jan-20 23:43N 35°10' W 063°41'1 9.5 21.0
2015-Jan-20 23:38N 35°11' W 063°41'0 0.0 21.0
2015-Jan-20 22:15N 35°11' W 063°41'0 1.5 21.0
2015-Jan-20 22:00N 35°11' W 063°41'0 0.8 21.0
2015-Jan-20 21:54N 35°11' W 063°42'0 2.3 21.0
2015-Jan-20 21:51N 35°11' W 063°42'1 0.8 21.0
2015-Jan-20 20:15N 35°12' W 063°41'1 0.8 21.0
2015-Jan-20 18:39N 35°13' W 063°40'1 7.7 21.0
2015-Jan-20 18:33N 35°14' W 063°41'1 0.8 21.0
2015-Jan-20 16:55N 35°15' W 063°40'2 1.8 21.0
2015-Jan-20 15:43N 35°16' W 063°39'0 0.0 21.0
2015-Jan-20 14:58N 35°16' W 063°39'0 3.3 21.0
2015-Jan-20 14:49N 35°16' W 063°38'116.4 21.0
2015-Jan-20 14:46N 35°17' W 063°38'0 0.0 21.0
2015-Jan-20 14:05N 35°17' W 063°38'2 1.0 20.9
2015-Jan-20 12:22N 35°19' W 063°37'0 0.0 21.0
2015-Jan-20 12:19N 35°19' W 063°37'2 1.3 21.0
2015-Jan-20 10:43N 35°20' W 063°35'0 0.6 21.0
2015-Jan-20 10:35N 35°20' W 063°35'0 1.5 21.0
2015-Jan-20 10:33N 35°20' W 063°36'210.4 21.0
2015-Jan-20 10:24N 35°22' W 063°34'1 1.3 21.0
2015-Jan-20 10:00N 35°21' W 063°34'1 0.5 21.0
2015-Jan-20 08:52N 35°22' W 063°34'0 0.8 21.0
2015-Jan-20 08:46N 35°22' W 063°34'029.6 21.0
2015-Jan-20 08:45N 35°22' W 063°34'115.2 21.0
2015-Jan-20 08:42N 35°22' W 063°33'1 2.5 21.0
2015-Jan-20 08:24N 35°22' W 063°34'1 0.7 21.0
2015-Jan-20 07:16N 35°22' W 063°33'0 1.0 21.0
2015-Jan-20 07:13N 35°22' W 063°33'213.6 21.0
2015-Jan-20 07:04N 35°23' W 063°31'0 0.0 21.0
2015-Jan-20 05:31N 35°23' W 063°31'3 1.6 21.0
2015-Jan-20 03:22N 35°24' W 063°27'1 8.8 21.0
2015-Jan-20 03:18N 35°24' W 063°26'0 0.0 21.0
2015-Jan-20 02:35N 35°24' W 063°26'1 1.4 21.0
2015-Jan-20 01:46N 35°25' W 063°25'1 4.2 21.0
2015-Jan-20 01:36N 35°25' W 063°24'2 2.7 21.0
2015-Jan-20 00:57N 35°25' W 063°22'1 2.0 21.0
2015-Jan-20 00:26N 35°25' W 063°23'1 2.5 21.0
2015-Jan-20 00:01N 35°25' W 063°22'3 2.2 21.0
2015-Jan-19 22:46N 35°25' W 063°18'2 4.9 21.0
2015-Jan-19 22:26N 35°26' W 063°20'0 0.0 21.0
2015-Jan-19 22:20N 35°26' W 063°20'0 1.5 21.0
2015-Jan-19 22:06N 35°25' W 063°20'110.8 21.0
2015-Jan-19 22:00N 35°25' W 063°19'0 0.2 21.0
2015-Jan-19 20:45N 35°25' W 063°18'0 0.2 21.1
2015-Jan-19 20:27N 35°25' W 063°18'2 1.0 21.1
2015-Jan-19 18:46N 35°24' W 063°17'0 0.0 21.1
2015-Jan-19 18:45N 35°24' W 063°17'1 0.6 21.1
2015-Jan-19 17:10N 35°24' W 063°16'0 0.0 21.1
2015-Jan-19 17:07N 35°24' W 063°16'2 1.4 21.1
2015-Jan-19 16:03N 35°23' W 063°15'0 0.0 21.1
2015-Jan-19 15:18N 35°23' W 063°15'1 6.7 21.1
2015-Jan-19 15:08N 35°22' W 063°13'0 0.0 21.1
2015-Jan-19 14:25N 35°22' W 063°13'1 0.8 21.1
2015-Jan-19 13:36N 35°22' W 063°13'210.4 21.1
2015-Jan-19 13:27N 35°21' W 063°11'0 0.0 21.1
2015-Jan-19 12:41N 35°21' W 063°11'236.4 21.1
2015-Jan-19 12:38N 35°19' W 063°11'0 0.0 21.1
2015-Jan-19 12:35N 35°19' W 063°11'0 0.0 21.1
2015-Jan-19 11:09N 35°19' W 063°11'1 3.3 21.1
2015-Jan-19 10:57N 35°18' W 063°10'0 0.0 21.1
2015-Jan-19 10:43N 35°18' W 063°10'1 7.9 21.1
2015-Jan-19 10:37N 35°19' W 063°09'2 1.3 21.1
2015-Jan-19 09:24N 35°17' W 063°09'0 3.8 21.1
2015-Jan-19 09:21N 35°17' W 063°09'1 1.5 21.1
2015-Jan-19 09:00N 35°17' W 063°09'0 0.9 21.1
2015-Jan-19 08:55N 35°17' W 063°09'2148.9 21.1
2015-Jan-19 08:54N 35°14' W 063°08'0 0.0 21.1
2015-Jan-19 07:25N 35°14' W 063°08'215.3 21.1
2015-Jan-19 07:16N 35°12' W 063°07'0 0.1 21.1
2015-Jan-19 05:41N 35°12' W 063°07'555.6 21.1
2015-Jan-19 05:36N 35°07' W 063°07'0 0.0 21.1
2015-Jan-19 02:51N 35°07' W 063°07'   21.1

Dump ship's entire track history